• Join FlightAware (Why Join?)
  • Login
  • US Flag 
03:47AM EST


 

Airport Tracker/Info


-or-


 

Live Flight TrackerFlight Track Log ✈ BER3704 ✈ 07-May-2012 ✈ EDDC / DRS - LTAI / AYT

Flight Track Log - Related Links

Times and Time Zones

All times are in EDT time to prevent confusion due to time zone crossing. See the BER3704 flight status page for this flight to view local times or setup timezone preferences in your user account.

Time Position Orientation Groundspeed Altitude Reporting Facility
EDT Latitude Longitude Course Direction KTS MPH feet Rate Location/Type
02:04AM 49.6660 16.1537 135° Southeast  Level Estimated
02:05AM 49.5810 16.2855 135° Southeast  Level Estimated
02:06AM 49.4957 16.4167 135° Southeast  Level Estimated
02:07AM 49.4103 16.5475 135° Southeast  Level Estimated
02:08AM 49.3248 16.6779 135° Southeast  Level Estimated
02:09AM 49.2391 16.8078 135° Southeast  Level Estimated
02:10AM 49.1533 16.9373 135° Southeast  Level Estimated
02:11AM 49.0673 17.0663 136° Southeast  Level Estimated
02:12AM 48.9812 17.1948 136° Southeast  Level Estimated
02:13AM 48.8949 17.3230 136° Southeast  Level Estimated
02:14AM 48.8085 17.4506 136° Southeast  Level Estimated
02:15AM 48.7220 17.5779 136° Southeast  Level Estimated
02:16AM 48.6353 17.7047 136° Southeast  Level Estimated
02:17AM 48.5485 17.8310 136° Southeast  Level Estimated
02:18AM 48.4615 17.9570 136° Southeast  Level Estimated
02:19AM 48.3744 18.0825 136° Southeast  Level Estimated
02:20AM 48.2872 18.2075 136° Southeast  Level Estimated
02:21AM 48.1998 18.3322 137° Southeast  Level Estimated
02:22AM 48.1123 18.4564 137° Southeast  Level Estimated
02:23AM 48.0247 18.5802 137° Southeast  Level Estimated
02:24AM 47.9370 18.7036 137° Southeast  Level Estimated
02:25AM 47.8490 18.8265 137° Southeast  Level Estimated
02:26AM 47.7610 18.9491 137° Southeast  Level Estimated
02:27AM 47.6729 19.0712 137° Southeast  Level Estimated
02:28AM 47.5846 19.1929 137° Southeast  Level Estimated
02:29AM 47.4962 19.3142 137° Southeast  Level Estimated
02:30AM 47.4076 19.4351 137° Southeast  Level Estimated
02:31AM 47.3190 19.5556 137° Southeast  Level Estimated
02:32AM 47.2302 19.6757 138° Southeast  Level Estimated
02:33AM 47.1412 19.7954 138° Southeast  Level Estimated
02:34AM 47.0522 19.9147 138° Southeast  Level Estimated
02:35AM 46.9630 20.0336 138° Southeast  Level Estimated
02:36AM 46.8737 20.1521 138° Southeast  Level Estimated
02:37AM 46.7843 20.2702 138° Southeast  Level Estimated
02:38AM 46.6948 20.3879 138° Southeast  Level Estimated
02:39AM 46.6051 20.5052 138° Southeast  Level Estimated
02:40AM 46.5154 20.6221 138° Southeast  Level Estimated
02:41AM 46.4255 20.7387 138° Southeast  Level Estimated
02:42AM 46.3355 20.8548 138° Southeast  Level Estimated
02:43AM 46.2453 20.9706 138° Southeast  Level Estimated
02:44AM 46.1551 21.0860 139° Southeast  Level Estimated
02:45AM 46.0647 21.2010 139° Southeast  Level Estimated
02:46AM 45.9743 21.3157 139° Southeast  Level Estimated
02:47AM 45.8837 21.4299 139° Southeast  Level Estimated
02:48AM 45.7930 21.5438 139° Southeast  Level Estimated
02:49AM 45.7021 21.6573 139° Southeast  Level Estimated
02:50AM 45.6112 21.7705 139° Southeast  Level Estimated
02:51AM 45.5202 21.8833 139° Southeast  Level Estimated
02:52AM 45.4290 21.9957 139° Southeast  Level Estimated
02:53AM 45.3378 22.1077 139° Southeast  Level Estimated
02:54AM 45.2464 22.2194 139° Southeast  Level Estimated
02:55AM 45.1549 22.3308 139° Southeast  Level Estimated
02:56AM 45.0633 22.4418 139° Southeast  Level Estimated
02:57AM 44.9716 22.5524 140° Southeast  Level Estimated
02:58AM 44.8798 22.6627 140° Southeast  Level Estimated
02:59AM 44.7879 22.7726 140° Southeast  Level Estimated
03:00AM 44.6959 22.8822 140° Southeast  Level Estimated
03:01AM 44.6038 22.9914 140° Southeast  Level Estimated
03:02AM 44.5116 23.1003 140° Southeast  Level Estimated
03:03AM 44.4193 23.2088 140° Southeast  Level Estimated
03:04AM 44.3269 23.3170 140° Southeast  Level Estimated
03:05AM 44.2343 23.4249 140° Southeast  Level Estimated
03:06AM 44.1417 23.5324 140° Southeast  Level Estimated
03:07AM 44.0490 23.6396 140° Southeast  Level Estimated
03:08AM 43.9561 23.7464 140° Southeast  Level Estimated
03:09AM 43.8632 23.8529 140° Southeast  Level Estimated
03:10AM 43.7702 23.9591 141° Southeast  Level Estimated
03:11AM 43.6771 24.0649 141° Southeast  Level Estimated
03:12AM 43.5838 24.1705 141° Southeast  Level Estimated
03:13AM 43.4905 24.2757 141° Southeast  Level Estimated
03:14AM 43.3971 24.3805 141° Southeast  Level Estimated
03:15AM 43.3036 24.4851 141° Southeast  Level Estimated
03:16AM 43.2100 24.5893 141° Southeast  Level Estimated
03:17AM 43.1163 24.6932 141° Southeast  Level Estimated
03:18AM 43.0225 24.7968 141° Southeast  Level Estimated
03:19AM 42.9286 24.9001 141° Southeast  Level Estimated
03:20AM 42.8346 25.0030 141° Southeast  Level Estimated
03:21AM 42.7406 25.1057 141° Southeast  Level Estimated
03:22AM 42.6464 25.2080 141° Southeast  Level Estimated
03:23AM 42.5522 25.3100 141° Southeast  Level Estimated
03:24AM 42.4578 25.4117 142° Southeast  Level Estimated
03:25AM 42.3634 25.5131 142° Southeast  Level Estimated
03:26AM 42.2689 25.6142 142° Southeast  Level Estimated
03:27AM 42.1743 25.7150 142° Southeast  Level Estimated
03:28AM 42.0796 25.8155 142° Southeast  Level Estimated
03:29AM 41.9848 25.9157 142° Southeast  Level Estimated
03:30AM 41.8899 26.0156 142° Southeast  Level Estimated
03:31AM 41.7950 26.1152 142° Southeast  Level Estimated
03:32AM 41.6999 26.2146 142° Southeast  Level Estimated
03:33AM 41.6048 26.3136 142° Southeast  Level Estimated
03:34AM 41.5096 26.4123 142° Southeast  Level Estimated
03:35AM 41.4143 26.5107 142° Southeast  Level Estimated
03:36AM 41.3189 26.6089 142° Southeast  Level Estimated
03:37AM 41.2234 26.7068 142° Southeast  Level Estimated
03:38AM 41.1279 26.8043 142° Southeast  Level Estimated
03:39AM 41.0323 26.9016 143° Southeast  Level Estimated
03:40AM 40.9366 26.9986 143° Southeast  Level Estimated
03:41AM 40.8408 27.0954 143° Southeast  Level Estimated
03:42AM 40.7449 27.1918 143° Southeast  Level Estimated
03:43AM 40.6489 27.2880 143° Southeast  Level Estimated
03:44AM 40.5529 27.3839 143° Southeast  Level Estimated
03:45AM 40.4568 27.4795 143° Southeast  Level Estimated
03:46AM 40.3606 27.5749 143° Southeast  Level Estimated
03:47AM 40.2643 27.6699 143° Southeast  Level Estimated
03:48AM 40.1680 27.7647 143° Southeast  Level Estimated
03:49AM 40.0716 27.8593 143° Southeast  Level Estimated
03:50AM 39.9751 27.9535 143° Southeast  Level Estimated
03:51AM 39.8785 28.0475 143° Southeast  Level Estimated
03:52AM 39.7818 28.1413 143° Southeast  Level Estimated
03:53AM 39.6851 28.2348 143° Southeast  Level Estimated
03:54AM 39.5883 28.3280 143° Southeast  Level Estimated
03:55AM 39.4915 28.4209 144° Southeast  Level Estimated
03:56AM 39.3945 28.5136 144° Southeast  Level Estimated
03:57AM 39.2975 28.6060 144° Southeast  Level Estimated
03:58AM 39.2004 28.6982 144° Southeast  Level Estimated
03:59AM 39.1032 28.7901 144° Southeast  Level Estimated
04:00AM 39.0060 28.8818 144° Southeast  Level Estimated
04:01AM 38.9087 28.9732 144° Southeast  Level Estimated
04:02AM 38.8113 29.0644 144° Southeast  Level Estimated
04:03AM 38.7138 29.1553 144° Southeast  Level Estimated
04:04AM 38.6163 29.2460 144° Southeast  Level Estimated
04:05AM 38.5187 29.3364 144° Southeast  Level Estimated
04:06AM 38.4211 29.4266 144° Southeast  Level Estimated
04:07AM 38.3233 29.5166 144° Southeast  Level Estimated
04:08AM 38.2255 29.6063 144° Southeast  Level Estimated
04:09AM 38.1277 29.6957 144° Southeast  Level Estimated
04:10AM 38.0297 29.7849 144° Southeast  Level Estimated
04:11AM 37.9317 29.8739 144° Southeast  Level Estimated
04:12AM 37.8337 29.9627 144° Southeast  Level Estimated
04:13AM 37.7355 30.0512 145° Southeast  Level Estimated
04:14AM 37.6373 30.1394 145° Southeast  Level Estimated
04:15AM 37.5391 30.2275 145° Southeast  Level Estimated
04:16AM 37.4407 30.3153 145° Southeast  Level Estimated
04:17AM 37.3423 30.4029 145° Southeast  Level Estimated
04:18AM 37.2439 30.4902 145° Southeast  Level Estimated
04:19AM 37.1454 30.5773 145° Southeast  Level Estimated
04:20AM 37.0468 30.6642 145° Southeast  Level Estimated
04:21AM 36.9481 30.7509 145° Southeast  Level Estimated
04:22AM 36.8494 30.8373 325° Northwest  Level Estimated
04:23AM 36.9481 30.7509 145° Southeast  Level Estimated
04:24AM 36.8494 30.8373 325° Northwest  Level Estimated
04:25AM 36.9481 30.7509 145° Southeast  Level Estimated
04:26AM 36.8494 30.8373 325° Northwest  Level Estimated
04:27AM 36.9481 30.7509 145° Southeast  Level Estimated
04:28AM 36.8494 30.8373 325° Northwest  Level Estimated
04:29AM 36.9481 30.7509 145° Southeast  Level Estimated
04:30AM 36.8494 30.8373 325° Northwest  Level Estimated
04:31AM 36.9481 30.7509 145° Southeast  Level Estimated
04:32AM 36.8494 30.8373 325° Northwest  Level Estimated
04:33AM 36.9481 30.7509 145° Southeast  Level Estimated
04:34AM 36.8494 30.8373 325° Northwest  Level Estimated
04:35AM 36.9481 30.7509 145° Southeast  Level Estimated
04:36AM 36.8494 30.8373 325° Northwest  Level Estimated
04:37AM 36.9481 30.7509 325° Northwest  Level Estimated